Cooper Landing, AK (99572)

2:57 PM AKST on February 26, 2017 (GMT -0900)
cooper landing snug harbour | | Change Station

Elev 200 ft 60.49 °N, 149.79 °W | Updated 5 minutes ago

Overcast
Overcast
38.5 °F
Feels Like 36 °F
N
3.2
Wind Variable Wind from WSW

Today
High -- | Low -- °F
--% Chance of Precip.
Yesterday
High -- | Low -- °F
Precip. -- in
Pressure 30.18 in
Visibility 10.0 miles
Clouds Clear
Windchill 36 °F
Dew Point 32 °F
Humidity 76%
Rainfall 0.52 in
Snow Depth Not available.
8:06 AM 6:19 PM
New Moon, 0% visible
METAR PAWD 262353Z AUTO 02009KT 10SM CLR 06/M03 A3018 RMK AO2 SLP220 T00611033 10061 20006 58013 TSNO
Pressure 30.18 in
Visibility 10.0 miles
Clouds Clear
Windchill 36 °F
Dew Point 32 °F
Humidity 76%
Rainfall 0.52 in
Snow Depth Not available.
8:06 AM 6:19 PM
New Moon, 0% visible
METAR PAWD 262353Z AUTO 02009KT 10SM CLR 06/M03 A3018 RMK AO2 SLP220 T00611033 10061 20006 58013 TSNO

Get Your Daily Forecast Email!

Thanks for signing up!

Be on the lookout for a verification email in your inbox.

You'll start receiving the daily forecast at 8 AM.

×

10-Day Weather Forecast

Almanac

Astronomy

Feb. 26, 2017 Rise Set
Actual Time
Civil Twilight
Nautical Twilight
Astronomical Twilight
Moon
Length of Visible Light
Length of Day
Tomorrow will be .
, % of the Moon is Illuminated

Today's Extremes

State Highs State Lows

Community

WunderPhotos

Upload Photos

1,962,540 photos uploaded!

WunderBlog® & News

Nearby

Air Quality

  Air Quality AQ Index Pollutant
Not available.

Snow Depth

Station Depth Elevation

Earthquake Activity

City Distance Mag. Time & Date
Minimum magnitude displayed is 2.5.

Coastal Water Temperatures

Place Temperature

Stations

Nearby Weather Stations

Station Location Temp. Windchill Dew Point Humidity Wind Precip. Elev Updated Type
                   

Watches & Warnings

There are currently no watches in effect.